METAR AND TAF INFORMATION
METAR FOR YBRM
ADDS - METARS form results

(0557 UTC 24 April 2019)
Data provider http://aviationweather.gov/metar/data/
 
METAR text: YBRM 240530Z 09007KT CAVOK 36/03 Q1011
Conditions at: YBRM (BROOME AIRPORT , AU) observed 0530 UTC 24 April 2019
Temperature: 36.0°C (97°F)
Dewpoint: 3.0°C (37°F) [RH = 13%]
Pressure (altimeter): 29.85 inches Hg (1011.0 mb)
Winds: from the E (90 degrees) at 8 MPH (7 knots; 3.6 m/s)
Visibility: 6 or more miles (10+ km)
Ceiling: ceiling and visibility are OK
Clouds: unknown
Weather: no significant weather observed at this time

METAR text: YBRM 240500Z 08010KT CAVOK 37/03 Q1011
Conditions at: YBRM (BROOME AIRPORT , AU) observed 0500 UTC 24 April 2019
Temperature: 37.0°C (99°F)
Dewpoint: 3.0°C (37°F) [RH = 12%]
Pressure (altimeter): 29.85 inches Hg (1011.0 mb)
Winds: from the E (80 degrees) at 12 MPH (10 knots; 5.1 m/s)
Visibility: 6 or more miles (10+ km)
Ceiling: ceiling and visibility are OK
Clouds: unknown
Weather: no significant weather observed at this time

Forecast for: YBRM (BROOME AIRPORT , AU)
Text: TAF YBRM 240420Z 2406/2506 11010KT CAVOK
Forecast period: 0600 UTC 24 April 2019 to 0100 UTC 25 April 2019
Forecast type: FROM: standard forecast or significant change
Winds: from the ESE (110 degrees) at 12 MPH (10 knots; 5.1 m/s)
Visibility: 6 or more miles 10+ km)
Ceiling: unknown
Clouds: missing
Weather: NSW  (no significant weather)
Text: FM250100 09015KT CAVOK
Forecast period: 0100 to 0600 UTC 25 April 2019
Forecast type: FROM: standard forecast or significant change
Winds: from the E (90 degrees) at 17 MPH (15 knots; 7.7 m/s)
Visibility: 6 or more miles 10+ km)
Ceiling: unknown
Clouds: missing
Weather: NSW  (no significant weather)

 AIRPORT MAP

 RUNWAY INFORMATION
Runway 10 Runway length 8064 ft Runway width 148 ft
Runway elevation 56 ft Runway displaced threshold 295 ft Runway heading 105
Runway 28 Runway length 8064 ft Runway width 148 ft
Runway elevation 22 ft Runway displaced threshold 689 ft Runway heading 285

 AIRPORT FREQUENCIES
Type ATIS Name ATIS Frequency 126.55 MHZ
Type CTAF Name CTAF Frequency 126 MHZ
Type FSS Name BRISBANE C Frequency 123.9 MHZ

 AIRPORT NEAR NAVIGATION AIDS
Type NDB-DME Name Broome Frequency 320 KHZ